Johnstown, PA

6:50 PM EST on January 22, 2017 (GMT -0500)
The Treetops at Stackhouse | | Change Station

Elev 1663 ft 40.32 °N, 78.93 °W | Updated 13 seconds ago

Overcast
Overcast
48.4 °F
Feels Like 48 °F
N
1.0
Wind Variable Wind from South

Today
High -- | Low -- °F
--% Chance of Precip.
Yesterday
High -- | Low -- °F
Precip. -- in
Pressure 29.61 in
Visibility 10.0 miles
Clouds Overcast 8000 ft
Windchill 48 °F
Dew Point 43 °F
Humidity 83%
Rainfall 0.00 in
Snow Depth Not available.
7:32 AM 5:22 PM
Waning Crescent, 23% visible
METAR KJST 222254Z AUTO 00000KT 10SM OVC080 09/07 A2959 RMK AO2 SLP027 T00890072 TSNO
Pressure 29.61 in
Visibility 10.0 miles
Clouds Overcast 8000 ft
Windchill 48 °F
Dew Point 43 °F
Humidity 83%
Rainfall 0.00 in
Snow Depth Not available.
7:32 AM 5:22 PM
Waning Crescent, 23% visible
METAR KJST 222254Z AUTO 00000KT 10SM OVC080 09/07 A2959 RMK AO2 SLP027 T00890072 TSNO

Get Your Daily Forecast Email!

Thanks for signing up!

Be on the lookout for a verification email in your inbox.

You'll start receiving the daily forecast at 8 AM.

×

10-Day Weather Forecast

Almanac

Astronomy

Jan. 22, 2017 Rise Set
Actual Time
Civil Twilight
Nautical Twilight
Astronomical Twilight
Moon
Length of Visible Light
Length of Day
Tomorrow will be .
, % of the Moon is Illuminated

Today's Extremes

State Highs State Lows

Community

WunderPhotos

Upload Photos

1,962,540 photos uploaded!

WunderBlog® & News

Nearby

Air Quality

  Air Quality AQ Index Pollutant
Not available.

Snow Depth

Station Depth Elevation

Earthquake Activity

City Distance Mag. Time & Date
Minimum magnitude displayed is 2.5.

Coastal Water Temperatures

Place Temperature

Stations

Nearby Weather Stations

Station Location Temp. Windchill Dew Point Humidity Wind Precip. Elev Updated Type
                   

Watches & Warnings

There are currently no watches in effect.